sensor_id;sensor_type;location;lat;lon;timestamp;P1;durP1;ratioP1;P2;durP2;ratioP2
47429;SDS011;33181;49.246;7.372;2023-01-19T00:00:17;30.23;;;16.07;;
47429;SDS011;33181;49.246;7.372;2023-01-19T00:02:43;29.73;;;15.30;;
47429;SDS011;33181;49.246;7.372;2023-01-19T00:05:11;31.97;;;15.57;;
47429;SDS011;33181;49.246;7.372;2023-01-19T00:07:37;29.17;;;16.43;;
47429;SDS011;33181;49.246;7.372;2023-01-19T00:10:03;24.53;;;14.90;;
47429;SDS011;33181;49.246;7.372;2023-01-19T00:12:30;27.73;;;15.27;;
47429;SDS011;33181;49.246;7.372;2023-01-19T00:14:57;25.90;;;14.50;;
47429;SDS011;33181;49.246;7.372;2023-01-19T00:17:23;24.10;;;15.03;;
47429;SDS011;33181;49.246;7.372;2023-01-19T00:19:48;24.30;;;15.10;;
47429;SDS011;33181;49.246;7.372;2023-01-19T00:22:14;26.63;;;14.80;;
47429;SDS011;33181;49.246;7.372;2023-01-19T00:24:40;25.90;;;15.03;;
47429;SDS011;33181;49.246;7.372;2023-01-19T00:27:06;26.40;;;14.50;;
47429;SDS011;33181;49.246;7.372;2023-01-19T00:29:32;24.50;;;14.53;;
47429;SDS011;33181;49.246;7.372;2023-01-19T00:32:02;27.50;;;15.90;;
47429;SDS011;33181;49.246;7.372;2023-01-19T00:34:29;23.90;;;14.33;;
47429;SDS011;33181;49.246;7.372;2023-01-19T00:37:01;23.60;;;14.90;;
47429;SDS011;33181;49.246;7.372;2023-01-19T00:39:28;25.27;;;14.60;;
47429;SDS011;33181;49.246;7.372;2023-01-19T00:41:53;25.53;;;14.30;;
47429;SDS011;33181;49.246;7.372;2023-01-19T00:44:38;26.13;;;14.60;;
47429;SDS011;33181;49.246;7.372;2023-01-19T00:47:03;22.77;;;14.47;;
47429;SDS011;33181;49.246;7.372;2023-01-19T00:49:29;27.10;;;15.03;;
47429;SDS011;33181;49.246;7.372;2023-01-19T00:51:56;23.47;;;14.43;;
47429;SDS011;33181;49.246;7.372;2023-01-19T00:54:21;24.00;;;14.83;;
47429;SDS011;33181;49.246;7.372;2023-01-19T00:56:47;25.93;;;14.80;;
47429;SDS011;33181;49.246;7.372;2023-01-19T00:59:13;26.43;;;14.63;;
47429;SDS011;33181;49.246;7.372;2023-01-19T01:01:39;21.80;;;13.77;;
47429;SDS011;33181;49.246;7.372;2023-01-19T01:04:04;26.73;;;14.57;;
47429;SDS011;33181;49.246;7.372;2023-01-19T01:06:30;24.30;;;14.30;;
47429;SDS011;33181;49.246;7.372;2023-01-19T01:08:56;26.10;;;15.20;;
47429;SDS011;33181;49.246;7.372;2023-01-19T01:11:21;24.53;;;13.90;;
47429;SDS011;33181;49.246;7.372;2023-01-19T01:13:47;23.33;;;13.67;;
47429;SDS011;33181;49.246;7.372;2023-01-19T01:16:14;23.70;;;14.43;;
47429;SDS011;33181;49.246;7.372;2023-01-19T01:18:40;23.80;;;13.50;;
47429;SDS011;33181;49.246;7.372;2023-01-19T01:21:07;25.87;;;14.93;;
47429;SDS011;33181;49.246;7.372;2023-01-19T01:23:33;24.53;;;14.50;;
47429;SDS011;33181;49.246;7.372;2023-01-19T01:25:59;26.43;;;15.10;;
47429;SDS011;33181;49.246;7.372;2023-01-19T01:28:26;23.57;;;13.97;;
47429;SDS011;33181;49.246;7.372;2023-01-19T01:30:52;25.77;;;15.43;;
47429;SDS011;33181;49.246;7.372;2023-01-19T01:33:19;27.90;;;14.73;;
47429;SDS011;33181;49.246;7.372;2023-01-19T01:35:45;23.87;;;13.53;;
47429;SDS011;33181;49.246;7.372;2023-01-19T01:38:13;23.00;;;13.93;;
47429;SDS011;33181;49.246;7.372;2023-01-19T01:40:40;26.03;;;14.40;;
47429;SDS011;33181;49.246;7.372;2023-01-19T01:43:13;23.03;;;13.30;;
47429;SDS011;33181;49.246;7.372;2023-01-19T01:45:41;23.87;;;14.57;;
47429;SDS011;33181;49.246;7.372;2023-01-19T01:48:12;26.67;;;15.73;;
47429;SDS011;33181;49.246;7.372;2023-01-19T01:51:02;25.33;;;14.40;;
47429;SDS011;33181;49.246;7.372;2023-01-19T01:54:01;23.40;;;13.40;;
47429;SDS011;33181;49.246;7.372;2023-01-19T01:56:43;24.57;;;14.17;;
47429;SDS011;33181;49.246;7.372;2023-01-19T01:59:20;29.53;;;15.23;;
47429;SDS011;33181;49.246;7.372;2023-01-19T02:02:00;26.30;;;14.97;;
47429;SDS011;33181;49.246;7.372;2023-01-19T02:04:49;26.73;;;15.23;;
47429;SDS011;33181;49.246;7.372;2023-01-19T02:07:25;21.60;;;14.00;;
47429;SDS011;33181;49.246;7.372;2023-01-19T02:10:26;21.70;;;13.20;;
47429;SDS011;33181;49.246;7.372;2023-01-19T02:13:11;26.17;;;15.30;;
47429;SDS011;33181;49.246;7.372;2023-01-19T02:15:44;30.47;;;15.63;;
47429;SDS011;33181;49.246;7.372;2023-01-19T02:18:20;25.13;;;14.93;;
47429;SDS011;33181;49.246;7.372;2023-01-19T02:24:03;28.23;;;15.47;;
47429;SDS011;33181;49.246;7.372;2023-01-19T02:26:32;26.70;;;15.67;;
47429;SDS011;33181;49.246;7.372;2023-01-19T02:29:09;24.23;;;14.57;;
47429;SDS011;33181;49.246;7.372;2023-01-19T02:31:39;27.33;;;15.07;;
47429;SDS011;33181;49.246;7.372;2023-01-19T02:34:06;27.50;;;14.70;;
47429;SDS011;33181;49.246;7.372;2023-01-19T02:36:55;25.70;;;14.80;;
47429;SDS011;33181;49.246;7.372;2023-01-19T02:39:22;24.93;;;14.77;;
47429;SDS011;33181;49.246;7.372;2023-01-19T02:45:17;21.90;;;14.40;;
47429;SDS011;33181;49.246;7.372;2023-01-19T02:47:47;24.70;;;14.03;;
47429;SDS011;33181;49.246;7.372;2023-01-19T02:56:04;23.87;;;14.40;;
47429;SDS011;33181;49.246;7.372;2023-01-19T03:07:40;24.30;;;13.87;;
47429;SDS011;33181;49.246;7.372;2023-01-19T03:19:04;23.17;;;13.33;;
47429;SDS011;33181;49.246;7.372;2023-01-19T03:21:46;24.73;;;12.40;;
47429;SDS011;33181;49.246;7.372;2023-01-19T03:24:19;24.20;;;13.10;;
47429;SDS011;33181;49.246;7.372;2023-01-19T03:26:51;21.60;;;13.70;;
47429;SDS011;33181;49.246;7.372;2023-01-19T03:29:27;19.67;;;13.10;;
47429;SDS011;33181;49.246;7.372;2023-01-19T03:31:59;24.80;;;14.70;;
47429;SDS011;33181;49.246;7.372;2023-01-19T03:34:31;22.97;;;12.73;;
47429;SDS011;33181;49.246;7.372;2023-01-19T03:37:01;25.47;;;14.50;;
47429;SDS011;33181;49.246;7.372;2023-01-19T03:39:29;23.80;;;14.73;;
47429;SDS011;33181;49.246;7.372;2023-01-19T03:42:02;31.17;;;14.80;;
47429;SDS011;33181;49.246;7.372;2023-01-19T03:44:33;26.60;;;14.27;;
47429;SDS011;33181;49.246;7.372;2023-01-19T03:47:02;28.37;;;15.17;;
47429;SDS011;33181;49.246;7.372;2023-01-19T03:49:30;24.40;;;15.20;;
47429;SDS011;33181;49.246;7.372;2023-01-19T03:51:58;28.00;;;16.10;;
47429;SDS011;33181;49.246;7.372;2023-01-19T03:54:24;26.37;;;16.57;;
47429;SDS011;33181;49.246;7.372;2023-01-19T03:56:50;29.37;;;15.40;;
47429;SDS011;33181;49.246;7.372;2023-01-19T03:59:16;27.80;;;15.87;;
47429;SDS011;33181;49.246;7.372;2023-01-19T04:01:46;28.77;;;15.97;;
47429;SDS011;33181;49.246;7.372;2023-01-19T04:04:12;27.87;;;15.40;;
47429;SDS011;33181;49.246;7.372;2023-01-19T04:06:39;28.83;;;15.27;;
47429;SDS011;33181;49.246;7.372;2023-01-19T04:09:06;26.73;;;15.80;;
47429;SDS011;33181;49.246;7.372;2023-01-19T04:11:32;26.40;;;15.60;;
47429;SDS011;33181;49.246;7.372;2023-01-19T04:13:58;24.13;;;15.40;;
47429;SDS011;33181;49.246;7.372;2023-01-19T04:16:24;32.27;;;15.93;;
47429;SDS011;33181;49.246;7.372;2023-01-19T04:18:49;25.97;;;15.30;;
47429;SDS011;33181;49.246;7.372;2023-01-19T04:21:16;24.90;;;15.10;;
47429;SDS011;33181;49.246;7.372;2023-01-19T04:23:44;29.17;;;16.67;;
47429;SDS011;33181;49.246;7.372;2023-01-19T04:26:10;32.93;;;16.20;;
47429;SDS011;33181;49.246;7.372;2023-01-19T04:28:36;28.80;;;16.13;;
47429;SDS011;33181;49.246;7.372;2023-01-19T04:31:03;26.27;;;15.70;;
47429;SDS011;33181;49.246;7.372;2023-01-19T04:33:30;29.60;;;15.67;;
47429;SDS011;33181;49.246;7.372;2023-01-19T04:35:56;26.80;;;15.00;;
47429;SDS011;33181;49.246;7.372;2023-01-19T04:38:23;23.97;;;14.70;;
47429;SDS011;33181;49.246;7.372;2023-01-19T04:40:49;29.13;;;16.20;;
47429;SDS011;33181;49.246;7.372;2023-01-19T04:43:18;32.60;;;16.63;;
47429;SDS011;33181;49.246;7.372;2023-01-19T04:45:44;27.77;;;15.73;;
47429;SDS011;33181;49.246;7.372;2023-01-19T04:48:11;30.37;;;17.67;;
47429;SDS011;33181;49.246;7.372;2023-01-19T04:50:38;29.00;;;16.20;;
47429;SDS011;33181;49.246;7.372;2023-01-19T04:53:05;28.07;;;16.60;;
47429;SDS011;33181;49.246;7.372;2023-01-19T04:55:31;30.70;;;16.70;;
47429;SDS011;33181;49.246;7.372;2023-01-19T04:57:57;25.47;;;16.10;;
47429;SDS011;33181;49.246;7.372;2023-01-19T05:00:23;28.27;;;16.40;;
47429;SDS011;33181;49.246;7.372;2023-01-19T05:02:49;28.67;;;17.10;;
47429;SDS011;33181;49.246;7.372;2023-01-19T05:05:15;35.90;;;16.67;;
47429;SDS011;33181;49.246;7.372;2023-01-19T05:07:41;27.50;;;15.80;;
47429;SDS011;33181;49.246;7.372;2023-01-19T05:10:07;29.37;;;17.17;;
47429;SDS011;33181;49.246;7.372;2023-01-19T05:12:34;35.90;;;17.13;;
47429;SDS011;33181;49.246;7.372;2023-01-19T05:15:00;37.17;;;16.67;;
47429;SDS011;33181;49.246;7.372;2023-01-19T05:17:26;32.10;;;17.30;;
47429;SDS011;33181;49.246;7.372;2023-01-19T05:19:52;38.53;;;16.90;;
47429;SDS011;33181;49.246;7.372;2023-01-19T05:22:18;30.40;;;16.40;;
47429;SDS011;33181;49.246;7.372;2023-01-19T05:24:43;28.57;;;16.00;;
47429;SDS011;33181;49.246;7.372;2023-01-19T05:27:09;32.33;;;17.47;;
47429;SDS011;33181;49.246;7.372;2023-01-19T05:29:36;30.30;;;17.27;;
47429;SDS011;33181;49.246;7.372;2023-01-19T05:32:01;32.70;;;16.83;;
47429;SDS011;33181;49.246;7.372;2023-01-19T05:34:27;26.60;;;16.27;;
47429;SDS011;33181;49.246;7.372;2023-01-19T05:36:53;33.00;;;17.50;;
47429;SDS011;33181;49.246;7.372;2023-01-19T05:39:19;30.20;;;17.90;;
47429;SDS011;33181;49.246;7.372;2023-01-19T05:41:45;36.63;;;16.63;;
47429;SDS011;33181;49.246;7.372;2023-01-19T05:44:11;33.10;;;17.67;;
47429;SDS011;33181;49.246;7.372;2023-01-19T05:46:38;31.77;;;17.67;;
47429;SDS011;33181;49.246;7.372;2023-01-19T05:49:04;37.50;;;17.37;;
47429;SDS011;33181;49.246;7.372;2023-01-19T05:51:31;35.40;;;18.40;;
47429;SDS011;33181;49.246;7.372;2023-01-19T05:54:05;38.30;;;20.23;;
47429;SDS011;33181;49.246;7.372;2023-01-19T05:56:32;32.40;;;17.47;;
47429;SDS011;33181;49.246;7.372;2023-01-19T05:58:59;34.23;;;18.83;;
47429;SDS011;33181;49.246;7.372;2023-01-19T06:01:26;34.83;;;18.40;;
47429;SDS011;33181;49.246;7.372;2023-01-19T06:03:52;34.07;;;18.07;;
47429;SDS011;33181;49.246;7.372;2023-01-19T06:06:18;69.07;;;32.53;;
47429;SDS011;33181;49.246;7.372;2023-01-19T06:08:44;50.40;;;24.70;;
47429;SDS011;33181;49.246;7.372;2023-01-19T06:11:10;37.40;;;20.07;;
47429;SDS011;33181;49.246;7.372;2023-01-19T06:13:37;44.77;;;21.60;;
47429;SDS011;33181;49.246;7.372;2023-01-19T06:16:07;52.07;;;25.00;;
47429;SDS011;33181;49.246;7.372;2023-01-19T06:18:33;37.30;;;18.63;;
47429;SDS011;33181;49.246;7.372;2023-01-19T06:21:06;59.87;;;28.43;;
47429;SDS011;33181;49.246;7.372;2023-01-19T06:23:33;46.37;;;22.87;;
47429;SDS011;33181;49.246;7.372;2023-01-19T06:26:00;36.87;;;19.93;;
47429;SDS011;33181;49.246;7.372;2023-01-19T06:28:27;42.07;;;21.63;;
47429;SDS011;33181;49.246;7.372;2023-01-19T06:30:53;37.13;;;19.13;;
47429;SDS011;33181;49.246;7.372;2023-01-19T06:33:20;58.37;;;27.03;;
47429;SDS011;33181;49.246;7.372;2023-01-19T06:35:49;41.20;;;20.50;;
47429;SDS011;33181;49.246;7.372;2023-01-19T06:38:15;34.73;;;19.80;;
47429;SDS011;33181;49.246;7.372;2023-01-19T06:40:43;39.43;;;21.13;;
47429;SDS011;33181;49.246;7.372;2023-01-19T06:43:15;35.67;;;18.03;;
47429;SDS011;33181;49.246;7.372;2023-01-19T06:45:41;33.57;;;17.93;;
47429;SDS011;33181;49.246;7.372;2023-01-19T06:48:07;32.10;;;16.70;;
47429;SDS011;33181;49.246;7.372;2023-01-19T06:50:33;55.87;;;26.30;;
47429;SDS011;33181;49.246;7.372;2023-01-19T06:52:59;34.67;;;19.17;;
47429;SDS011;33181;49.246;7.372;2023-01-19T06:55:25;51.30;;;24.83;;
47429;SDS011;33181;49.246;7.372;2023-01-19T06:57:57;30.20;;;17.53;;
47429;SDS011;33181;49.246;7.372;2023-01-19T07:00:24;33.43;;;17.27;;
47429;SDS011;33181;49.246;7.372;2023-01-19T07:02:50;26.47;;;15.80;;
47429;SDS011;33181;49.246;7.372;2023-01-19T07:05:16;30.90;;;17.90;;
47429;SDS011;33181;49.246;7.372;2023-01-19T07:07:42;30.67;;;16.83;;
47429;SDS011;33181;49.246;7.372;2023-01-19T07:10:09;29.33;;;16.43;;
47429;SDS011;33181;49.246;7.372;2023-01-19T07:12:37;29.50;;;17.50;;
47429;SDS011;33181;49.246;7.372;2023-01-19T07:15:04;31.00;;;16.30;;
47429;SDS011;33181;49.246;7.372;2023-01-19T07:17:35;28.53;;;14.70;;
47429;SDS011;33181;49.246;7.372;2023-01-19T07:20:01;30.50;;;15.70;;
47429;SDS011;33181;49.246;7.372;2023-01-19T07:22:27;32.97;;;16.43;;
47429;SDS011;33181;49.246;7.372;2023-01-19T07:24:53;27.80;;;15.50;;
47429;SDS011;33181;49.246;7.372;2023-01-19T07:27:19;29.93;;;16.00;;
47429;SDS011;33181;49.246;7.372;2023-01-19T07:29:45;27.70;;;16.53;;
47429;SDS011;33181;49.246;7.372;2023-01-19T07:32:11;29.17;;;15.63;;
47429;SDS011;33181;49.246;7.372;2023-01-19T07:34:37;31.57;;;17.23;;
47429;SDS011;33181;49.246;7.372;2023-01-19T07:37:02;29.97;;;16.57;;
47429;SDS011;33181;49.246;7.372;2023-01-19T07:39:28;33.73;;;16.50;;
47429;SDS011;33181;49.246;7.372;2023-01-19T07:41:56;29.23;;;16.40;;
47429;SDS011;33181;49.246;7.372;2023-01-19T07:44:21;34.53;;;15.77;;
47429;SDS011;33181;49.246;7.372;2023-01-19T07:46:48;27.33;;;14.87;;
47429;SDS011;33181;49.246;7.372;2023-01-19T07:49:15;27.33;;;15.30;;
47429;SDS011;33181;49.246;7.372;2023-01-19T07:51:40;28.67;;;15.93;;
47429;SDS011;33181;49.246;7.372;2023-01-19T07:54:07;26.47;;;16.10;;
47429;SDS011;33181;49.246;7.372;2023-01-19T07:56:33;28.47;;;16.07;;
47429;SDS011;33181;49.246;7.372;2023-01-19T07:58:59;26.73;;;15.43;;
47429;SDS011;33181;49.246;7.372;2023-01-19T08:01:25;26.67;;;15.37;;
47429;SDS011;33181;49.246;7.372;2023-01-19T08:03:51;28.13;;;15.87;;
47429;SDS011;33181;49.246;7.372;2023-01-19T08:06:23;30.87;;;16.57;;
47429;SDS011;33181;49.246;7.372;2023-01-19T08:08:56;28.90;;;16.30;;
47429;SDS011;33181;49.246;7.372;2023-01-19T08:11:22;25.30;;;15.60;;
47429;SDS011;33181;49.246;7.372;2023-01-19T08:13:47;29.23;;;16.83;;
47429;SDS011;33181;49.246;7.372;2023-01-19T08:16:13;29.17;;;15.80;;
47429;SDS011;33181;49.246;7.372;2023-01-19T08:18:39;27.13;;;16.27;;
47429;SDS011;33181;49.246;7.372;2023-01-19T08:21:04;30.17;;;16.20;;
47429;SDS011;33181;49.246;7.372;2023-01-19T08:23:30;31.03;;;17.20;;
47429;SDS011;33181;49.246;7.372;2023-01-19T08:25:56;30.07;;;16.97;;
47429;SDS011;33181;49.246;7.372;2023-01-19T08:28:22;31.40;;;16.83;;
47429;SDS011;33181;49.246;7.372;2023-01-19T08:30:48;34.90;;;17.03;;
47429;SDS011;33181;49.246;7.372;2023-01-19T08:33:23;28.07;;;15.17;;
47429;SDS011;33181;49.246;7.372;2023-01-19T08:35:50;26.03;;;15.93;;
47429;SDS011;33181;49.246;7.372;2023-01-19T08:38:17;28.17;;;15.57;;
47429;SDS011;33181;49.246;7.372;2023-01-19T08:40:43;29.77;;;15.40;;
47429;SDS011;33181;49.246;7.372;2023-01-19T08:43:10;27.40;;;15.73;;
47429;SDS011;33181;49.246;7.372;2023-01-19T08:45:40;34.80;;;18.73;;
47429;SDS011;33181;49.246;7.372;2023-01-19T08:48:12;28.33;;;16.30;;
47429;SDS011;33181;49.246;7.372;2023-01-19T08:50:38;31.80;;;17.17;;
47429;SDS011;33181;49.246;7.372;2023-01-19T08:53:04;26.97;;;15.30;;
47429;SDS011;33181;49.246;7.372;2023-01-19T08:55:32;30.80;;;17.03;;
47429;SDS011;33181;49.246;7.372;2023-01-19T08:57:59;27.00;;;15.60;;
47429;SDS011;33181;49.246;7.372;2023-01-19T09:00:28;33.20;;;17.97;;
47429;SDS011;33181;49.246;7.372;2023-01-19T09:02:55;32.00;;;16.37;;
47429;SDS011;33181;49.246;7.372;2023-01-19T09:05:22;31.13;;;17.10;;
47429;SDS011;33181;49.246;7.372;2023-01-19T09:07:48;30.60;;;17.40;;
47429;SDS011;33181;49.246;7.372;2023-01-19T09:10:15;31.60;;;15.27;;
47429;SDS011;33181;49.246;7.372;2023-01-19T09:12:42;30.40;;;17.77;;
47429;SDS011;33181;49.246;7.372;2023-01-19T09:15:09;29.20;;;15.90;;
47429;SDS011;33181;49.246;7.372;2023-01-19T09:17:37;29.60;;;16.17;;
47429;SDS011;33181;49.246;7.372;2023-01-19T09:20:07;29.57;;;16.50;;
47429;SDS011;33181;49.246;7.372;2023-01-19T09:22:34;30.43;;;16.47;;
47429;SDS011;33181;49.246;7.372;2023-01-19T09:24:59;33.30;;;16.50;;
47429;SDS011;33181;49.246;7.372;2023-01-19T09:27:26;30.80;;;16.00;;
47429;SDS011;33181;49.246;7.372;2023-01-19T09:29:52;29.27;;;17.23;;
47429;SDS011;33181;49.246;7.372;2023-01-19T09:32:18;29.90;;;16.60;;
47429;SDS011;33181;49.246;7.372;2023-01-19T09:34:45;24.80;;;16.00;;
47429;SDS011;33181;49.246;7.372;2023-01-19T09:37:11;28.87;;;16.67;;
47429;SDS011;33181;49.246;7.372;2023-01-19T09:39:37;28.60;;;16.53;;
47429;SDS011;33181;49.246;7.372;2023-01-19T09:42:18;30.80;;;16.20;;
47429;SDS011;33181;49.246;7.372;2023-01-19T09:44:55;30.30;;;16.57;;
47429;SDS011;33181;49.246;7.372;2023-01-19T09:47:22;32.20;;;17.30;;
47429;SDS011;33181;49.246;7.372;2023-01-19T09:49:57;35.10;;;17.37;;
47429;SDS011;33181;49.246;7.372;2023-01-19T09:52:34;32.03;;;17.40;;
47429;SDS011;33181;49.246;7.372;2023-01-19T09:55:03;34.73;;;18.17;;
47429;SDS011;33181;49.246;7.372;2023-01-19T09:57:43;30.53;;;17.10;;
47429;SDS011;33181;49.246;7.372;2023-01-19T10:00:12;27.93;;;16.20;;
47429;SDS011;33181;49.246;7.372;2023-01-19T10:02:47;32.93;;;16.47;;
47429;SDS011;33181;49.246;7.372;2023-01-19T10:11:18;27.60;;;14.83;;
47429;SDS011;33181;49.246;7.372;2023-01-19T10:14:15;30.53;;;16.87;;
47429;SDS011;33181;49.246;7.372;2023-01-19T10:17:00;27.23;;;16.40;;
47429;SDS011;33181;49.246;7.372;2023-01-19T10:20:03;30.50;;;16.33;;
47429;SDS011;33181;49.246;7.372;2023-01-19T10:22:47;31.07;;;16.37;;
47429;SDS011;33181;49.246;7.372;2023-01-19T10:25:19;29.47;;;15.97;;
47429;SDS011;33181;49.246;7.372;2023-01-19T10:27:49;26.33;;;15.07;;
47429;SDS011;33181;49.246;7.372;2023-01-19T10:30:19;26.07;;;15.80;;
47429;SDS011;33181;49.246;7.372;2023-01-19T10:32:48;29.43;;;15.73;;
47429;SDS011;33181;49.246;7.372;2023-01-19T10:35:16;29.53;;;16.20;;
47429;SDS011;33181;49.246;7.372;2023-01-19T10:37:48;27.63;;;15.57;;
47429;SDS011;33181;49.246;7.372;2023-01-19T10:40:29;28.10;;;15.10;;
47429;SDS011;33181;49.246;7.372;2023-01-19T10:46:31;28.87;;;15.57;;
47429;SDS011;33181;49.246;7.372;2023-01-19T10:49:25;32.93;;;14.87;;
47429;SDS011;33181;49.246;7.372;2023-01-19T10:51:55;27.70;;;16.30;;
47429;SDS011;33181;49.246;7.372;2023-01-19T10:54:23;24.67;;;14.37;;
47429;SDS011;33181;49.246;7.372;2023-01-19T10:57:02;29.43;;;14.80;;
47429;SDS011;33181;49.246;7.372;2023-01-19T10:59:32;28.57;;;15.30;;
47429;SDS011;33181;49.246;7.372;2023-01-19T11:02:17;29.20;;;15.53;;
47429;SDS011;33181;49.246;7.372;2023-01-19T11:04:52;28.10;;;14.77;;
47429;SDS011;33181;49.246;7.372;2023-01-19T11:07:30;24.70;;;14.80;;
47429;SDS011;33181;49.246;7.372;2023-01-19T11:10:12;24.10;;;13.37;;
47429;SDS011;33181;49.246;7.372;2023-01-19T11:15:20;25.30;;;13.73;;
47429;SDS011;33181;49.246;7.372;2023-01-19T11:18:42;23.00;;;13.83;;
47429;SDS011;33181;49.246;7.372;2023-01-19T11:21:03;24.07;;;13.37;;
47429;SDS011;33181;49.246;7.372;2023-01-19T11:23:45;21.63;;;12.30;;
47429;SDS011;33181;49.246;7.372;2023-01-19T11:29:16;20.40;;;12.97;;
47429;SDS011;33181;49.246;7.372;2023-01-19T11:31:50;21.43;;;12.70;;
47429;SDS011;33181;49.246;7.372;2023-01-19T11:34:25;18.07;;;12.03;;
47429;SDS011;33181;49.246;7.372;2023-01-19T11:36:58;20.00;;;11.70;;
47429;SDS011;33181;49.246;7.372;2023-01-19T11:39:28;19.00;;;11.63;;
47429;SDS011;33181;49.246;7.372;2023-01-19T11:42:00;15.00;;;10.43;;
47429;SDS011;33181;49.246;7.372;2023-01-19T11:44:32;16.90;;;10.87;;
47429;SDS011;33181;49.246;7.372;2023-01-19T11:47:05;16.80;;;10.67;;
47429;SDS011;33181;49.246;7.372;2023-01-19T11:50:00;15.57;;;9.63;;
47429;SDS011;33181;49.246;7.372;2023-01-19T11:52:47;15.97;;;10.40;;
47429;SDS011;33181;49.246;7.372;2023-01-19T11:55:56;18.10;;;9.90;;
47429;SDS011;33181;49.246;7.372;2023-01-19T11:58:38;15.33;;;9.93;;
47429;SDS011;33181;49.246;7.372;2023-01-19T12:06:38;12.93;;;9.23;;
47429;SDS011;33181;49.246;7.372;2023-01-19T12:11:39;13.13;;;9.20;;
47429;SDS011;33181;49.246;7.372;2023-01-19T12:14:18;14.30;;;9.40;;
47429;SDS011;33181;49.246;7.372;2023-01-19T12:16:54;13.00;;;9.07;;
47429;SDS011;33181;49.246;7.372;2023-01-19T12:19:30;14.27;;;9.47;;
47429;SDS011;33181;49.246;7.372;2023-01-19T12:22:31;14.83;;;8.80;;
47429;SDS011;33181;49.246;7.372;2023-01-19T12:25:19;12.33;;;8.63;;
47429;SDS011;33181;49.246;7.372;2023-01-19T12:27:49;13.10;;;9.07;;
47429;SDS011;33181;49.246;7.372;2023-01-19T12:32:49;11.60;;;8.33;;
47429;SDS011;33181;49.246;7.372;2023-01-19T12:46:42;11.53;;;8.20;;
47429;SDS011;33181;49.246;7.372;2023-01-19T12:52:20;12.73;;;8.00;;
47429;SDS011;33181;49.246;7.372;2023-01-19T12:58:25;11.70;;;7.80;;
47429;SDS011;33181;49.246;7.372;2023-01-19T13:00:38;12.20;;;8.00;;
47429;SDS011;33181;49.246;7.372;2023-01-19T13:05:54;13.10;;;7.80;;
47429;SDS011;33181;49.246;7.372;2023-01-19T13:08:21;13.20;;;8.03;;
47429;SDS011;33181;49.246;7.372;2023-01-19T13:13:27;14.13;;;8.70;;
47429;SDS011;33181;49.246;7.372;2023-01-19T13:18:57;12.13;;;8.17;;
47429;SDS011;33181;49.246;7.372;2023-01-19T13:24:11;13.57;;;8.13;;
47429;SDS011;33181;49.246;7.372;2023-01-19T13:29:21;14.23;;;7.83;;
47429;SDS011;33181;49.246;7.372;2023-01-19T13:32:14;10.60;;;8.00;;
47429;SDS011;33181;49.246;7.372;2023-01-19T13:34:53;12.40;;;8.20;;
47429;SDS011;33181;49.246;7.372;2023-01-19T13:37:28;12.27;;;8.40;;
47429;SDS011;33181;49.246;7.372;2023-01-19T13:40:06;12.40;;;8.00;;
47429;SDS011;33181;49.246;7.372;2023-01-19T13:42:45;11.73;;;7.63;;
47429;SDS011;33181;49.246;7.372;2023-01-19T13:48:03;10.10;;;7.40;;
47429;SDS011;33181;49.246;7.372;2023-01-19T13:50:33;9.63;;;7.10;;
47429;SDS011;33181;49.246;7.372;2023-01-19T13:53:13;10.37;;;7.20;;
47429;SDS011;33181;49.246;7.372;2023-01-19T13:55:45;10.97;;;7.30;;
47429;SDS011;33181;49.246;7.372;2023-01-19T13:58:24;11.50;;;7.30;;
47429;SDS011;33181;49.246;7.372;2023-01-19T14:00:51;13.73;;;7.80;;
47429;SDS011;33181;49.246;7.372;2023-01-19T14:03:17;11.40;;;7.90;;
47429;SDS011;33181;49.246;7.372;2023-01-19T14:05:51;8.80;;;7.00;;
47429;SDS011;33181;49.246;7.372;2023-01-19T14:08:19;11.00;;;7.63;;
47429;SDS011;33181;49.246;7.372;2023-01-19T14:10:49;11.53;;;7.63;;
47429;SDS011;33181;49.246;7.372;2023-01-19T14:13:30;10.20;;;7.50;;
47429;SDS011;33181;49.246;7.372;2023-01-19T14:18:37;12.07;;;7.67;;
47429;SDS011;33181;49.246;7.372;2023-01-19T14:21:07;14.40;;;9.00;;
47429;SDS011;33181;49.246;7.372;2023-01-19T14:29:06;13.63;;;8.47;;
47429;SDS011;33181;49.246;7.372;2023-01-19T14:31:48;14.93;;;7.97;;
47429;SDS011;33181;49.246;7.372;2023-01-19T14:34:48;12.97;;;8.97;;
47429;SDS011;33181;49.246;7.372;2023-01-19T14:37:28;17.03;;;8.87;;
47429;SDS011;33181;49.246;7.372;2023-01-19T14:39:59;18.17;;;10.73;;
47429;SDS011;33181;49.246;7.372;2023-01-19T14:42:49;14.77;;;9.67;;
47429;SDS011;33181;49.246;7.372;2023-01-19T14:45:35;15.30;;;10.00;;
47429;SDS011;33181;49.246;7.372;2023-01-19T14:48:19;17.47;;;10.13;;
47429;SDS011;33181;49.246;7.372;2023-01-19T14:50:46;18.20;;;11.03;;
47429;SDS011;33181;49.246;7.372;2023-01-19T14:55:49;16.93;;;11.30;;
47429;SDS011;33181;49.246;7.372;2023-01-19T14:58:25;16.03;;;10.70;;
47429;SDS011;33181;49.246;7.372;2023-01-19T15:00:54;17.13;;;10.83;;
47429;SDS011;33181;49.246;7.372;2023-01-19T15:03:23;16.03;;;10.93;;
47429;SDS011;33181;49.246;7.372;2023-01-19T15:05:51;16.47;;;10.90;;
47429;SDS011;33181;49.246;7.372;2023-01-19T15:08:24;26.73;;;12.33;;
47429;SDS011;33181;49.246;7.372;2023-01-19T15:10:54;16.40;;;11.30;;
47429;SDS011;33181;49.246;7.372;2023-01-19T15:13:26;21.83;;;11.67;;
47429;SDS011;33181;49.246;7.372;2023-01-19T15:15:52;16.80;;;11.43;;
47429;SDS011;33181;49.246;7.372;2023-01-19T15:18:22;23.07;;;12.07;;
47429;SDS011;33181;49.246;7.372;2023-01-19T15:20:51;19.33;;;12.10;;
47429;SDS011;33181;49.246;7.372;2023-01-19T15:23:19;18.20;;;12.60;;
47429;SDS011;33181;49.246;7.372;2023-01-19T15:25:45;18.20;;;12.10;;
47429;SDS011;33181;49.246;7.372;2023-01-19T15:28:15;17.80;;;11.97;;
47429;SDS011;33181;49.246;7.372;2023-01-19T15:30:43;18.70;;;11.30;;
47429;SDS011;33181;49.246;7.372;2023-01-19T15:33:16;19.40;;;11.60;;
47429;SDS011;33181;49.246;7.372;2023-01-19T15:35:45;15.77;;;11.23;;
47429;SDS011;33181;49.246;7.372;2023-01-19T15:38:11;14.90;;;10.43;;
47429;SDS011;33181;49.246;7.372;2023-01-19T15:40:37;16.60;;;11.00;;
47429;SDS011;33181;49.246;7.372;2023-01-19T15:43:03;15.60;;;10.70;;
47429;SDS011;33181;49.246;7.372;2023-01-19T15:48:11;16.20;;;11.03;;
47429;SDS011;33181;49.246;7.372;2023-01-19T15:50:41;17.03;;;11.30;;
47429;SDS011;33181;49.246;7.372;2023-01-19T15:53:12;17.20;;;11.30;;
47429;SDS011;33181;49.246;7.372;2023-01-19T15:55:41;16.97;;;11.80;;
47429;SDS011;33181;49.246;7.372;2023-01-19T15:58:07;15.77;;;10.70;;
47429;SDS011;33181;49.246;7.372;2023-01-19T16:00:33;17.77;;;10.80;;
47429;SDS011;33181;49.246;7.372;2023-01-19T16:03:00;16.83;;;10.30;;
47429;SDS011;33181;49.246;7.372;2023-01-19T16:05:26;19.70;;;10.50;;
47429;SDS011;33181;49.246;7.372;2023-01-19T16:07:52;14.50;;;10.00;;
47429;SDS011;33181;49.246;7.372;2023-01-19T16:10:18;18.87;;;11.53;;
47429;SDS011;33181;49.246;7.372;2023-01-19T16:12:45;16.40;;;11.60;;
47429;SDS011;33181;49.246;7.372;2023-01-19T16:15:14;23.10;;;13.60;;
47429;SDS011;33181;49.246;7.372;2023-01-19T16:17:42;18.33;;;11.47;;
47429;SDS011;33181;49.246;7.372;2023-01-19T16:20:09;17.00;;;10.13;;
47429;SDS011;33181;49.246;7.372;2023-01-19T16:22:36;17.57;;;11.67;;
47429;SDS011;33181;49.246;7.372;2023-01-19T16:25:02;16.00;;;10.80;;